Time;durP1;ratioP1;P1;durP2;ratioP2;P2;SDS_P1;SDS_P2;PMS_P1;PMS_P2;Temp;Humidity;BMP_temperature;BMP_pressure;BME280_temperature;BME280_humidity;BME280_pressure;Samples;Min_cycle;Max_cycle;Signal;HPM_P1;HPM_P2
2023/01/03 00:01:18;;;;;;;42.55;22.88;;;8.70;99.90;;;;;;5097917;28;20028;-75
2023/01/03 00:03:44;;;;;;;40.10;21.92;;;8.70;99.90;;;;;;5096222;28;20035;-75
2023/01/03 00:06:23;;;;;;;37.30;20.33;;;8.70;99.90;;;;;;5094023;28;20044;-75
2023/01/03 00:08:49;;;;;;;41.10;21.23;;;8.70;99.90;;;;;;5092639;28;20043;-75
2023/01/03 00:11:17;;;;;;;35.28;21.13;;;8.70;99.90;;;;;;5097943;28;20378;-75
2023/01/03 00:13:43;;;;;;;37.03;21.08;;;8.70;99.90;;;;;;5087640;28;20469;-75
2023/01/03 00:16:19;;;;;;;39.10;21.30;;;8.60;99.90;;;;;;5093036;28;20150;-74
2023/01/03 00:18:45;;;;;;;34.53;21.25;;;8.60;99.90;;;;;;5093633;28;20157;-74
2023/01/03 00:21:11;;;;;;;35.38;20.70;;;8.60;99.90;;;;;;5087900;28;20426;-74
2023/01/03 00:23:37;;;;;;;40.22;22.70;;;8.60;99.90;;;;;;5088966;28;20030;-74
2023/01/03 00:26:10;;;;;;;40.20;22.27;;;8.60;99.90;;;;;;5094573;28;20115;-74
2023/01/03 00:28:36;;;;;;;40.55;22.27;;;8.60;99.90;;;;;;5103352;28;20496;-73
2023/01/03 00:31:09;;;;;;;43.58;21.17;;;8.60;99.90;;;;;;5097903;28;20039;-74
2023/01/03 00:33:37;;;;;;;41.42;20.95;;;8.60;99.90;;;;;;5102762;28;20390;-74
2023/01/03 00:36:04;;;;;;;37.83;19.38;;;8.60;99.90;;;;;;5087736;28;20044;-74
2023/01/03 00:38:30;;;;;;;38.88;21.38;;;8.60;99.90;;;;;;5087722;28;20168;-74
2023/01/03 00:41:07;;;;;;;36.22;21.00;;;8.60;99.90;;;;;;5091026;28;20119;-74
2023/01/03 00:43:34;;;;;;;36.60;20.02;;;8.70;99.90;;;;;;5093497;28;20076;-75
2023/01/03 00:46:00;;;;;;;33.22;18.25;;;8.60;99.90;;;;;;5098621;28;20038;-74
2023/01/03 00:48:26;;;;;;;32.03;19.52;;;8.60;99.90;;;;;;5101616;28;20028;-74
2023/01/03 00:50:52;;;;;;;34.92;18.90;;;8.60;99.90;;;;;;5096373;28;20051;-75
2023/01/03 00:53:18;;;;;;;35.15;18.75;;;8.50;99.90;;;;;;5091910;28;20063;-75
2023/01/03 00:55:44;;;;;;;32.83;18.42;;;8.50;99.90;;;;;;5096859;28;20106;-74
2023/01/03 00:58:09;;;;;;;30.27;15.80;;;8.50;99.90;;;;;;5109242;28;20592;-74
2023/01/03 01:00:35;;;;;;;29.40;16.17;;;8.50;99.90;;;;;;5095495;28;20517;-74
2023/01/03 01:03:01;;;;;;;24.92;13.93;;;8.50;99.90;;;;;;5095464;28;20102;-74
2023/01/03 01:05:28;;;;;;;23.48;13.38;;;8.50;99.90;;;;;;5093756;28;20060;-75
2023/01/03 01:07:54;;;;;;;22.02;14.93;;;8.50;99.90;;;;;;5094876;28;20023;-75
2023/01/03 01:10:21;;;;;;;22.92;12.32;;;8.40;99.90;;;;;;5099562;28;20500;-74
2023/01/03 01:12:47;;;;;;;22.90;12.30;;;8.50;99.90;;;;;;5094286;28;20496;-75
2023/01/03 01:15:13;;;;;;;25.58;14.45;;;8.40;99.90;;;;;;5097543;28;20023;-75
2023/01/03 01:17:39;;;;;;;23.35;13.77;;;8.40;99.90;;;;;;5100820;28;20416;-74
2023/01/03 01:20:06;;;;;;;26.00;14.20;;;8.40;99.90;;;;;;5106521;28;20027;-75
2023/01/03 01:22:32;;;;;;;25.88;15.63;;;8.40;99.90;;;;;;5098354;28;20024;-74
2023/01/03 01:24:58;;;;;;;27.33;14.77;;;8.40;99.90;;;;;;5093627;28;20067;-74
2023/01/03 01:27:24;;;;;;;20.88;11.25;;;8.40;99.90;;;;;;5097310;28;20104;-74
2023/01/03 01:29:50;;;;;;;21.15;11.35;;;8.40;99.90;;;;;;5097824;28;20069;-74
2023/01/03 01:32:15;;;;;;;22.65;11.48;;;8.30;99.90;;;;;;5111824;28;20130;-74
2023/01/03 01:34:41;;;;;;;17.25;11.43;;;8.40;99.90;;;;;;5094582;28;20040;-74
2023/01/03 01:37:07;;;;;;;20.73;11.40;;;8.40;99.90;;;;;;5094512;28;20606;-75
2023/01/03 01:39:33;;;;;;;23.20;13.52;;;8.50;99.90;;;;;;5098763;28;20020;-75
2023/01/03 01:45:12;;;;;;;27.20;16.10;;;8.50;99.90;;;;;;5047644;28;20499;-75
2023/01/03 01:48:00;;;;;;;30.95;17.77;;;8.40;99.90;;;;;;5087676;28;20040;-74
2023/01/03 01:50:41;;;;;;;37.38;19.77;;;8.40;99.90;;;;;;5098224;28;20051;-74
2023/01/03 01:53:17;;;;;;;21.98;12.20;;;8.50;99.90;;;;;;5094545;28;20094;-74
2023/01/03 01:56:04;;;;;;;22.70;13.23;;;8.50;99.90;;;;;;5102053;28;20035;-74
2023/01/03 01:58:38;;;;;;;23.00;14.35;;;8.40;99.90;;;;;;5109354;28;20019;-74
2023/01/03 02:01:08;;;;;;;30.65;17.73;;;8.40;99.90;;;;;;5092338;28;20489;-74
2023/01/03 02:03:33;;;;;;;30.17;16.58;;;8.40;99.90;;;;;;5091151;28;20020;-74
2023/01/03 02:06:01;;;;;;;25.17;14.18;;;8.40;99.90;;;;;;5101412;28;20032;-75
2023/01/03 02:08:27;;;;;;;25.95;14.25;;;8.40;99.90;;;;;;5090226;28;20494;-74
2023/01/03 02:11:18;;;;;;;24.70;14.90;;;8.30;99.90;;;;;;5089670;28;20062;-74
2023/01/03 02:14:01;;;;;;;33.25;17.98;;;8.30;99.90;;;;;;5090101;28;20566;-74
2023/01/03 02:16:50;;;;;;;29.17;17.83;;;8.30;99.90;;;;;;5098118;28;20034;-74
2023/01/03 02:19:52;;;;;;;30.38;14.52;;;8.20;99.90;;;;;;5099663;28;20038;-75
2023/01/03 02:22:48;;;;;;;25.65;13.98;;;8.30;99.90;;;;;;5098559;28;20032;-74
2023/01/03 02:25:38;;;;;;;24.88;12.73;;;8.30;99.90;;;;;;5094676;28;20039;-74
2023/01/03 02:28:10;;;;;;;23.80;14.40;;;8.30;99.90;;;;;;5102762;28;20028;-75
2023/01/03 02:30:50;;;;;;;29.63;15.48;;;8.30;99.90;;;;;;5103834;28;20038;-74
2023/01/03 02:33:34;;;;;;;30.73;16.90;;;8.30;99.90;;;;;;5099889;28;20027;-74
2023/01/03 02:36:13;;;;;;;28.15;16.08;;;8.30;99.90;;;;;;5104904;28;20056;-75
2023/01/03 02:38:48;;;;;;;36.80;17.55;;;8.40;99.90;;;;;;5092847;28;20521;-74
2023/01/03 02:41:32;;;;;;;30.27;16.92;;;8.30;99.90;;;;;;5105501;28;20394;-74
2023/01/03 02:44:17;;;;;;;27.88;17.17;;;8.30;99.90;;;;;;5095442;28;20043;-74
2023/01/03 02:46:57;;;;;;;;;;;8.30;99.90;;;;;;5098399;28;20081;-75
2023/01/03 02:49:33;;;;;;;28.58;16.27;;;8.30;99.90;;;;;;5106231;28;20015;-74
2023/01/03 02:52:15;;;;;;;28.00;15.80;;;8.30;99.90;;;;;;5098790;28;20056;-74
2023/01/03 02:55:01;;;;;;;30.05;16.58;;;8.30;99.90;;;;;;5099968;28;20028;-74
2023/01/03 02:57:55;;;;;;;31.33;18.50;;;8.40;99.90;;;;;;5095902;28;20027;-74
2023/01/03 03:00:25;;;;;;;35.47;18.95;;;8.30;99.90;;;;;;5097477;28;20412;-74
2023/01/03 03:02:57;;;;;;;29.63;18.90;;;8.40;99.90;;;;;;5093941;28;20028;-74
2023/01/03 03:05:41;;;;;;;30.55;17.77;;;8.40;99.90;;;;;;5101151;28;20489;-75
2023/01/03 03:08:06;;;;;;;27.80;18.05;;;8.30;99.90;;;;;;5098032;28;20062;-74
2023/01/03 03:13:50;;;;;;;25.77;13.93;;;8.30;99.90;;;;;;5090887;28;20035;-74
2023/01/03 03:16:47;;;;;;;33.67;17.77;;;8.30;99.90;;;;;;5091849;28;20044;-74
2023/01/03 03:25:34;;;;;;;30.65;16.48;;;8.40;99.90;;;;;;5088749;28;20102;-75
2023/01/03 03:30:54;;;;;;;35.75;19.17;;;8.40;99.90;;;;;;5099311;28;20043;-75
2023/01/03 03:33:23;;;;;;;32.92;19.02;;;8.30;99.90;;;;;;5098987;28;20031;-74
2023/01/03 03:36:02;;;;;;;34.13;18.70;;;8.40;99.90;;;;;;5100657;28;20614;-74
2023/01/03 03:38:33;;;;;;;32.95;18.60;;;8.40;99.90;;;;;;5089762;28;20366;-75
2023/01/03 03:47:16;;;;;;;33.28;16.95;;;8.50;99.90;;;;;;5096407;28;20071;-75
2023/01/03 03:49:44;;;;;;;26.55;16.23;;;8.60;99.90;;;;;;5096262;28;20490;-75
2023/01/03 03:52:16;;;;;;;25.92;14.98;;;8.60;99.90;;;;;;5095126;28;20024;-74
2023/01/03 03:54:48;;;;;;;27.52;16.77;;;8.60;99.90;;;;;;5094338;28;20396;-74
2023/01/03 03:57:35;;;;;;;17.23;11.98;;;8.60;99.90;;;;;;5097325;28;20031;-75
2023/01/03 04:00:15;;;;;;;21.55;12.13;;;8.60;99.90;;;;;;5106607;28;20084;-75
2023/01/03 04:02:41;;;;;;;21.02;11.35;;;8.70;99.90;;;;;;5092008;28;20498;-74
2023/01/03 04:05:09;;;;;;;21.30;12.63;;;8.70;99.90;;;;;;5083305;28;20393;-73
2023/01/03 04:07:35;;;;;;;22.60;14.18;;;8.80;99.90;;;;;;5093693;28;20573;-74
2023/01/03 04:10:01;;;;;;;24.08;15.65;;;8.70;99.90;;;;;;5087153;28;20040;-74
2023/01/03 04:12:27;;;;;;;22.88;15.63;;;8.60;99.90;;;;;;5085791;28;20843;-74
2023/01/03 04:14:53;;;;;;;23.83;13.05;;;8.60;99.90;;;;;;5096004;28;20032;-74
2023/01/03 04:17:18;;;;;;;31.17;16.63;;;8.70;99.90;;;;;;5090401;28;20350;-74
2023/01/03 04:19:44;;;;;;;27.90;16.08;;;8.60;99.90;;;;;;5093544;28;20193;-74
2023/01/03 04:22:10;;;;;;;32.22;16.27;;;8.60;99.90;;;;;;5093182;28;20044;-73
2023/01/03 04:24:35;;;;;;;30.45;18.20;;;8.50;99.90;;;;;;5098999;28;20023;-74
2023/01/03 04:27:01;;;;;;;33.83;20.23;;;8.50;99.90;;;;;;5093137;28;20035;-73
2023/01/03 04:29:27;;;;;;;38.13;21.15;;;8.50;99.90;;;;;;5086035;28;20492;-73
2023/01/03 04:31:52;;;;;;;27.70;17.23;;;8.40;99.90;;;;;;5091881;28;20032;-74
2023/01/03 04:34:18;;;;;;;27.58;15.27;;;8.30;99.90;;;;;;5090819;28;20052;-74
2023/01/03 04:36:44;;;;;;;26.92;15.38;;;8.30;99.90;;;;;;5088168;28;20064;-74
2023/01/03 04:39:10;;;;;;;29.63;16.92;;;8.30;99.90;;;;;;5101773;28;20080;-74
2023/01/03 04:41:35;;;;;;;27.60;16.33;;;8.40;99.90;;;;;;5085437;28;20023;-74
2023/01/03 04:44:01;;;;;;;30.50;17.17;;;8.40;99.90;;;;;;5090366;28;20040;-74
2023/01/03 04:46:36;;;;;;;28.88;16.08;;;8.40;99.90;;;;;;5083770;28;20036;-74
2023/01/03 04:49:04;;;;;;;27.75;17.08;;;8.40;99.90;;;;;;5082636;28;20085;-74
2023/01/03 04:51:30;;;;;;;29.05;16.35;;;8.40;99.90;;;;;;5090051;28;20157;-74
2023/01/03 04:53:56;;;;;;;21.98;13.98;;;8.40;99.90;;;;;;5079840;28;20120;-74
2023/01/03 04:56:35;;;;;;;23.33;14.50;;;8.40;99.90;;;;;;5087165;28;20035;-74
2023/01/03 04:59:00;;;;;;;25.98;16.42;;;8.40;99.90;;;;;;5090580;28;20027;-74
2023/01/03 05:01:26;;;;;;;25.85;15.60;;;8.30;99.90;;;;;;5083132;28;20068;-73
2023/01/03 05:03:59;;;;;;;26.15;15.55;;;8.20;99.90;;;;;;5091320;28;20063;-75
2023/01/03 05:06:25;;;;;;;26.05;15.38;;;8.30;99.90;;;;;;5096601;28;20494;-74
2023/01/03 05:08:51;;;;;;;22.08;14.27;;;8.30;99.90;;;;;;5096814;28;20027;-74
2023/01/03 05:11:17;;;;;;;25.50;15.25;;;8.20;99.90;;;;;;5078634;28;20028;-74
2023/01/03 05:13:42;;;;;;;23.20;15.13;;;8.20;99.90;;;;;;5080802;28;20031;-74
2023/01/03 05:16:11;;;;;;;28.45;16.17;;;8.10;99.90;;;;;;5081879;28;20111;-74
2023/01/03 05:18:37;;;;;;;24.83;15.43;;;8.10;99.90;;;;;;5087150;28;20503;-75
2023/01/03 05:26:39;;;;;;;29.10;15.05;;;8.50;99.90;;;;;;5080895;28;20054;-74
2023/01/03 05:29:06;;;;;;;26.33;15.20;;;8.40;99.90;;;;;;5080274;28;20035;-74
2023/01/03 05:31:31;;;;;;;24.20;15.75;;;8.30;99.90;;;;;;5089503;28;20057;-75
2023/01/03 05:33:58;;;;;;;26.45;15.55;;;8.20;99.90;;;;;;5092453;28;20417;-74
2023/01/03 05:36:23;;;;;;;26.80;14.00;;;8.30;99.90;;;;;;5088555;28;20038;-75
2023/01/03 05:38:49;;;;;;;24.95;14.68;;;8.30;99.90;;;;;;5088545;28;20032;-75
2023/01/03 05:41:58;;;;;;;25.73;13.82;;;8.30;99.90;;;;;;5087337;28;20024;-74
2023/01/03 05:44:00;;;;;;;27.58;14.45;;;8.30;99.90;;;;;;5081422;28;20069;-74
2023/01/03 05:46:26;;;;;;;27.70;15.43;;;8.20;99.90;;;;;;5080894;28;20346;-75
2023/01/03 05:48:52;;;;;;;21.83;13.80;;;8.20;99.90;;;;;;5089126;28;20070;-75
2023/01/03 05:51:17;;;;;;;24.95;14.77;;;8.20;99.90;;;;;;5087913;28;20032;-75
2023/01/03 05:53:43;;;;;;;24.52;14.65;;;8.30;99.90;;;;;;5088070;28;20049;-75
2023/01/03 05:56:09;;;;;;;29.55;14.25;;;8.40;99.90;;;;;;5090188;28;20019;-75
2023/01/03 05:58:35;;;;;;;26.15;13.75;;;8.40;99.90;;;;;;5083979;28;20452;-75
2023/01/03 06:01:10;;;;;;;26.13;13.80;;;8.30;99.90;;;;;;5088486;28;20123;-74
2023/01/03 06:03:36;;;;;;;25.02;14.07;;;8.40;99.90;;;;;;5090285;28;20945;-74
2023/01/03 06:06:06;;;;;;;26.67;13.95;;;8.40;99.90;;;;;;5087229;28;20035;-75
2023/01/03 06:08:32;;;;;;;24.00;13.52;;;8.40;99.90;;;;;;5091890;28;20118;-75
2023/01/03 06:10:58;;;;;;;23.33;13.68;;;8.30;99.90;;;;;;5089962;28;20374;-74
2023/01/03 06:13:23;;;;;;;27.50;16.40;;;8.20;99.90;;;;;;5090755;28;20046;-75
2023/01/03 06:18:34;;;;;;;22.35;13.05;;;8.10;99.90;;;;;;5083241;28;20043;-74
2023/01/03 06:21:03;;;;;;;25.15;14.05;;;8.20;99.90;;;;;;5094607;28;20028;-74
2023/01/03 06:23:28;;;;;;;25.40;13.95;;;8.10;99.90;;;;;;5097824;28;20453;-75
2023/01/03 06:25:54;;;;;;;22.58;13.25;;;8.10;99.90;;;;;;5093522;28;20039;-75
2023/01/03 06:28:19;;;;;;;24.02;14.60;;;8.10;99.90;;;;;;5082993;28;20035;-75
2023/01/03 06:30:45;;;;;;;25.08;13.68;;;8.10;99.90;;;;;;5091674;28;20879;-75
2023/01/03 06:33:11;;;;;;;23.95;14.25;;;8.10;99.90;;;;;;5082313;28;20027;-75
2023/01/03 06:35:38;;;;;;;24.33;13.55;;;8.10;99.90;;;;;;5089134;28;20047;-75
2023/01/03 06:38:04;;;;;;;23.95;14.25;;;8.00;99.90;;;;;;5090270;28;20036;-74
2023/01/03 06:40:29;;;;;;;36.10;17.50;;;7.90;99.90;;;;;;5095348;28;20135;-75
2023/01/03 06:42:55;;;;;;;26.92;14.73;;;7.90;99.90;;;;;;5093110;28;20046;-74
2023/01/03 06:53:48;;;;;;;24.98;14.57;;;8.10;99.90;;;;;;5052874;28;20126;-75
2023/01/03 06:56:14;;;;;;;23.45;14.43;;;8.10;99.90;;;;;;5083592;28;20161;-75
2023/01/03 06:58:40;;;;;;;22.63;14.98;;;8.20;99.90;;;;;;5097639;28;20035;-75
2023/01/03 07:01:05;;;;;;;24.20;14.50;;;8.20;99.90;;;;;;5091621;28;20058;-75
2023/01/03 07:03:33;;;;;;;25.65;14.07;;;8.20;99.90;;;;;;5086675;28;20408;-75
2023/01/03 07:05:59;;;;;;;22.63;13.45;;;8.20;99.90;;;;;;5095917;28;20036;-75
2023/01/03 07:08:24;;;;;;;24.13;14.05;;;8.20;99.90;;;;;;5091286;28;20614;-74
2023/01/03 07:10:50;;;;;;;21.67;13.32;;;8.20;99.90;;;;;;5084023;28;20122;-75
2023/01/03 07:16:00;;;;;;;25.88;14.55;;;8.10;99.90;;;;;;5092609;28;20048;-75
2023/01/03 07:18:25;;;;;;;28.35;15.15;;;8.00;99.90;;;;;;5086306;28;20031;-74
2023/01/03 07:20:51;;;;;;;25.33;16.08;;;8.00;99.90;;;;;;5083357;28;20028;-75
2023/01/03 07:23:17;;;;;;;23.63;14.32;;;8.00;99.90;;;;;;5083802;28;20113;-75
2023/01/03 07:25:43;;;;;;;22.73;14.02;;;8.00;99.90;;;;;;5082479;28;20116;-75
2023/01/03 07:28:13;;;;;;;23.48;13.80;;;8.10;99.90;;;;;;5088263;28;20114;-74
2023/01/03 07:30:41;;;;;;;22.00;15.00;;;8.10;99.90;;;;;;5095657;28;20130;-75
2023/01/03 07:33:08;;;;;;;25.17;13.85;;;8.10;99.90;;;;;;5087437;28;20038;-75
2023/01/03 07:35:35;;;;;;;26.55;14.88;;;8.10;99.90;;;;;;5085206;28;20044;-75
2023/01/03 07:38:01;;;;;;;26.10;15.68;;;8.10;99.90;;;;;;5081909;28;20024;-74
2023/01/03 07:40:27;;;;;;;21.63;13.88;;;8.10;99.90;;;;;;5083908;28;20028;-74
2023/01/03 07:45:44;;;;;;;23.75;14.43;;;8.10;99.90;;;;;;5090648;28;20058;-74
2023/01/03 07:48:11;;;;;;;25.30;14.80;;;8.10;99.90;;;;;;5094821;28;20445;-76
2023/01/03 07:50:37;;;;;;;29.48;15.00;;;8.10;99.90;;;;;;5083373;28;20052;-75
2023/01/03 07:53:05;;;;;;;23.90;14.30;;;8.10;99.90;;;;;;5088816;28;20056;-75
2023/01/03 07:55:35;;;;;;;23.60;14.05;;;8.20;99.90;;;;;;5085827;28;20035;-76
2023/01/03 07:58:01;;;;;;;26.10;13.70;;;8.20;99.90;;;;;;5083744;28;21960;-75
2023/01/03 08:00:27;;;;;;;28.17;16.95;;;8.30;99.90;;;;;;5087291;28;20036;-74
2023/01/03 08:02:53;;;;;;;26.10;16.00;;;8.20;99.90;;;;;;5085200;28;20028;-74
2023/01/03 08:05:20;;;;;;;24.88;15.85;;;8.20;99.90;;;;;;5080536;28;20035;-75
2023/01/03 08:07:47;;;;;;;28.48;16.70;;;8.10;99.90;;;;;;5087380;28;21038;-75
2023/01/03 08:13:17;;;;;;;25.13;15.38;;;8.10;99.90;;;;;;5087916;28;20393;-75
2023/01/03 08:15:46;;;;;;;32.35;16.08;;;8.20;99.90;;;;;;5086660;28;20060;-74
2023/01/03 08:18:13;;;;;;;25.70;16.55;;;8.20;99.90;;;;;;5084190;28;20028;-74
2023/01/03 08:20:39;;;;;;;25.25;14.88;;;8.30;99.90;;;;;;5083753;28;20108;-75
2023/01/03 08:23:05;;;;;;;25.58;14.93;;;8.30;99.90;;;;;;5082375;28;20047;-74
2023/01/03 08:25:30;;;;;;;28.00;14.48;;;8.30;99.90;;;;;;5089129;28;20684;-74
2023/01/03 08:27:57;;;;;;;23.40;13.82;;;8.30;99.90;;;;;;5078500;28;20627;-75
2023/01/03 08:30:23;;;;;;;24.70;15.48;;;8.40;99.90;;;;;;5081579;28;20127;-74
2023/01/03 08:32:48;;;;;;;26.27;16.15;;;8.40;99.90;;;;;;5088964;28;20111;-74
2023/01/03 08:35:15;;;;;;;24.33;15.70;;;8.30;99.90;;;;;;5086454;28;20051;-75
2023/01/03 08:37:43;;;;;;;28.38;16.35;;;8.40;99.90;;;;;;5081419;28;20032;-75
2023/01/03 08:40:10;;;;;;;28.60;15.77;;;8.40;99.90;;;;;;5083542;28;20035;-75
2023/01/03 08:42:36;;;;;;;24.33;14.98;;;8.40;99.90;;;;;;5085118;28;20032;-75
2023/01/03 08:45:04;;;;;;;26.40;15.27;;;8.30;99.90;;;;;;5080201;28;20120;-75
2023/01/03 08:47:30;;;;;;;27.88;15.30;;;8.40;99.90;;;;;;5088435;28;20036;-75
2023/01/03 08:49:57;;;;;;;25.30;16.02;;;8.40;99.90;;;;;;5082000;28;20197;-76
2023/01/03 08:52:23;;;;;;;26.13;15.80;;;8.40;99.90;;;;;;5082857;28;20441;-76
2023/01/03 08:54:49;;;;;;;29.63;17.85;;;8.50;99.90;;;;;;5079947;28;20038;-74
2023/01/03 08:57:14;;;;;;;39.78;20.02;;;8.50;99.90;;;;;;5083184;28;20115;-76
2023/01/03 08:59:41;;;;;;;36.30;20.23;;;8.60;99.90;;;;;;5081187;28;20038;-75
2023/01/03 09:02:08;;;;;;;26.40;17.23;;;8.50;99.90;;;;;;5080081;28;20031;-75
2023/01/03 09:04:34;;;;;;;29.42;16.05;;;8.50;99.90;;;;;;5085271;28;20016;-75
2023/01/03 09:06:59;;;;;;;27.88;15.70;;;8.60;99.90;;;;;;5082950;28;20757;-75
2023/01/03 09:09:25;;;;;;;33.75;19.83;;;8.60;99.90;;;;;;5088697;28;20148;-75
2023/01/03 09:11:51;;;;;;;30.77;18.48;;;8.70;99.90;;;;;;5086686;28;20035;-68
2023/01/03 09:14:16;;;;;;;30.58;18.30;;;8.70;99.90;;;;;;5085454;28;20036;-76
2023/01/03 09:16:42;;;;;;;27.80;17.42;;;8.50;99.90;;;;;;5084835;28;20027;-74
2023/01/03 09:19:08;;;;;;;35.10;20.58;;;8.50;99.90;;;;;;5089852;28;20020;-74
2023/01/03 09:21:33;;;;;;;38.25;21.65;;;8.40;99.90;;;;;;5086192;28;20655;-72
2023/01/03 09:23:59;;;;;;;43.42;23.38;;;8.40;99.90;;;;;;5088909;28;20579;-75
2023/01/03 09:26:24;;;;;;;33.83;19.27;;;8.40;99.90;;;;;;5090263;28;20502;-75
2023/01/03 09:28:50;;;;;;;33.03;18.10;;;8.50;99.90;;;;;;5081574;28;20106;-74
2023/01/03 09:31:16;;;;;;;30.40;18.02;;;8.60;99.90;;;;;;5088362;28;20112;-74
2023/01/03 09:33:41;;;;;;;33.05;18.50;;;8.60;99.90;;;;;;5087323;28;20031;-75
2023/01/03 09:36:07;;;;;;;28.40;16.10;;;8.80;99.90;;;;;;5085818;28;20048;-75
2023/01/03 09:38:33;;;;;;;26.90;17.77;;;8.80;99.90;;;;;;5088660;28;20027;-75
2023/01/03 09:41:16;;;;;;;28.38;17.95;;;8.70;99.90;;;;;;5086332;28;20028;-75
2023/01/03 09:43:46;;;;;;;29.85;17.27;;;8.70;99.90;;;;;;5089299;28;20074;-75
2023/01/03 09:46:16;;;;;;;27.13;16.77;;;8.70;99.90;;;;;;5085212;28;20504;-75
2023/01/03 09:48:42;;;;;;;29.77;17.88;;;8.70;99.90;;;;;;5093355;28;20389;-74
2023/01/03 10:05:43;;;;;;;23.10;16.10;;;8.40;99.90;;;;;;5099154;27;20620;-75
2023/01/03 10:08:37;;;;;;;25.92;16.33;;;8.40;99.90;;;;;;5092310;28;20028;-75
2023/01/03 10:11:17;;;;;;;31.33;19.15;;;8.30;99.90;;;;;;5092377;28;20057;-74
2023/01/03 10:13:53;;;;;;;28.42;17.40;;;8.40;99.90;;;;;;5091309;28;20118;-75
2023/01/03 10:16:34;;;;;;;39.63;17.85;;;8.50;99.90;;;;;;5090205;28;20028;-76
2023/01/03 10:19:15;;;;;;;26.98;17.70;;;8.60;99.90;;;;;;5088154;28;20039;-75
2023/01/03 10:21:41;;;;;;;30.77;17.63;;;8.80;99.90;;;;;;5089371;28;20058;-75
2023/01/03 10:24:23;;;;;;;29.17;18.73;;;8.80;99.90;;;;;;5085294;28;20157;-74
2023/01/03 10:27:17;;;;;;;27.42;16.48;;;8.80;99.90;;;;;;5091350;28;20043;-74
2023/01/03 10:29:49;;;;;;;28.77;17.50;;;8.80;99.90;;;;;;5080893;28;20083;-75
2023/01/03 10:32:24;;;;;;;29.55;17.60;;;8.80;99.90;;;;;;5088226;27;20035;-75
2023/01/03 10:35:20;;;;;;;30.48;18.17;;;8.80;99.90;;;;;;5086299;28;20039;-74
2023/01/03 10:37:48;;;;;;;27.77;17.27;;;8.70;99.90;;;;;;5084023;28;20039;-74
2023/01/03 10:40:14;;;;;;;28.75;16.88;;;8.70;99.90;;;;;;5090823;28;20030;-75
2023/01/03 10:42:41;;;;;;;23.38;15.52;;;8.80;99.90;;;;;;5095342;28;20027;-75
2023/01/03 10:45:18;;;;;;;28.52;15.77;;;8.80;99.90;;;;;;5097965;28;20130;-73
2023/01/03 10:47:56;;;;;;;26.25;15.93;;;8.80;99.90;;;;;;5092774;28;20036;-74
2023/01/03 10:50:23;;;;;;;24.15;15.85;;;8.70;99.90;;;;;;5091444;28;20078;-74
2023/01/03 10:53:04;;;;;;;26.40;15.00;;;8.70;99.90;;;;;;5092490;28;20027;-74
2023/01/03 10:55:34;;;;;;;24.40;14.82;;;8.80;99.90;;;;;;5086316;27;20024;-74
2023/01/03 10:58:01;;;;;;;26.45;14.77;;;8.90;99.90;;;;;;5090707;28;20023;-74
2023/01/03 11:00:37;;;;;;;23.83;15.32;;;8.70;99.90;;;;;;5095995;28;20127;-75
2023/01/03 11:03:13;;;;;;;22.67;15.10;;;8.80;99.90;;;;;;5092746;27;20539;-75
2023/01/03 11:05:42;;;;;;;26.20;17.52;;;8.80;99.90;;;;;;5096165;28;20085;-75
2023/01/03 11:08:43;;;;;;;24.45;16.02;;;8.80;99.90;;;;;;5095105;28;20035;-75
2023/01/03 11:11:31;;;;;;;36.10;22.23;;;8.90;99.90;;;;;;5087523;28;20400;-75
2023/01/03 11:14:14;;;;;;;25.67;17.30;;;8.90;99.90;;;;;;5084222;28;20394;-75
2023/01/03 11:16:40;;;;;;;24.83;14.23;;;8.90;99.90;;;;;;5092736;28;20081;-75
2023/01/03 11:19:06;;;;;;;25.58;15.73;;;9.00;99.90;;;;;;5087302;28;20032;-74
2023/01/03 11:21:52;;;;;;;23.38;16.15;;;9.10;99.90;;;;;;5101630;28;20036;-74
2023/01/03 11:24:31;;;;;;;26.95;15.90;;;9.10;99.90;;;;;;5088384;28;20088;-75
2023/01/03 11:27:27;;;;;;;30.50;16.75;;;9.20;99.90;;;;;;5093085;28;20096;-75
2023/01/03 11:30:20;;;;;;;26.05;14.48;;;9.20;99.90;;;;;;5049340;28;20048;-74
2023/01/03 11:33:07;;;;;;;28.98;16.83;;;9.10;99.90;;;;;;5090405;28;20032;-76
2023/01/03 11:35:38;;;;;;;23.73;14.35;;;9.30;99.90;;;;;;5090049;28;20458;-75
2023/01/03 11:38:23;;;;;;;24.95;14.70;;;9.30;99.90;;;;;;5086960;28;20058;-75
2023/01/03 11:41:03;;;;;;;25.23;14.23;;;9.40;99.90;;;;;;5089660;28;20036;-76
2023/01/03 11:43:41;;;;;;;29.33;16.30;;;9.40;99.90;;;;;;5087723;28;20406;-77
2023/01/03 11:46:19;;;;;;;27.15;16.45;;;9.40;99.90;;;;;;5085131;28;20039;-75
2023/01/03 16:21:21;;;;;;;35.88;18.95;;;8.80;99.90;;;;;;5092083;27;20122;-77
2023/01/03 16:23:47;;;;;;;29.58;17.60;;;8.60;99.90;;;;;;5079145;28;20383;-77
2023/01/03 16:26:14;;;;;;;99.65;58.58;;;8.60;99.90;;;;;;5067491;28;20028;-76
2023/01/03 16:28:40;;;;;;;52.55;31.58;;;8.40;99.90;;;;;;5068290;28;20042;-78
2023/01/03 16:31:17;;;;;;;34.55;21.77;;;8.40;99.90;;;;;;5066154;28;20347;-77
2023/01/03 16:33:48;;;;;;;27.13;15.13;;;8.30;99.90;;;;;;5066920;28;20028;-77
2023/01/03 16:36:36;;;;;;;27.20;15.68;;;8.30;99.90;;;;;;5073293;28;20032;-78
2023/01/03 16:39:04;;;;;;;24.70;14.27;;;8.30;99.90;;;;;;5064939;28;20021;-76
2023/01/03 16:41:30;;;;;;;25.50;15.00;;;8.30;99.90;;;;;;5067906;28;20365;-77
2023/01/03 16:43:56;;;;;;;27.13;13.52;;;8.30;99.90;;;;;;5066494;28;20043;-78
2023/01/03 16:46:24;;;;;;;26.02;13.77;;;8.30;99.90;;;;;;5068271;28;20066;-77
2023/01/03 16:48:52;;;;;;;24.58;12.80;;;8.30;99.90;;;;;;5063406;28;20047;-76
2023/01/03 16:51:23;;;;;;;23.88;13.48;;;8.40;99.90;;;;;;5063554;28;20037;-77
2023/01/03 16:53:50;;;;;;;23.23;13.02;;;8.40;99.90;;;;;;5062263;28;20028;-77
2023/01/03 16:56:16;;;;;;;19.55;12.00;;;8.30;99.90;;;;;;5062839;28;20078;-77
2023/01/03 16:58:42;;;;;;;25.30;15.48;;;8.30;99.90;;;;;;5077952;28;20028;-78
2023/01/03 17:01:08;;;;;;;21.20;13.48;;;8.40;99.90;;;;;;5066300;28;20037;-78
2023/01/03 17:03:33;;;;;;;22.15;13.27;;;8.40;99.90;;;;;;5060267;28;20031;-77
2023/01/03 17:05:59;;;;;;;18.38;11.10;;;8.30;99.90;;;;;;5070813;28;20075;-78
2023/01/03 17:08:32;;;;;;;20.38;11.95;;;8.30;99.90;;;;;;5071999;28;20103;-77
2023/01/03 17:10:58;;;;;;;16.48;10.55;;;8.40;99.90;;;;;;5063853;28;20072;-77
2023/01/03 17:13:40;;;;;;;21.60;11.35;;;8.40;99.90;;;;;;5079537;28;20064;-78
2023/01/03 17:16:13;;;;;;;22.23;13.65;;;8.50;99.90;;;;;;5060360;28;20139;-76
2023/01/03 17:18:41;;;;;;;23.50;10.80;;;8.60;99.90;;;;;;5080708;28;20032;-77
2023/01/03 17:21:21;;;;;;;16.73;10.07;;;8.60;99.90;;;;;;5066622;28;20098;-78
2023/01/03 17:23:48;;;;;;;23.05;12.75;;;8.60;99.90;;;;;;5064418;28;20385;-77
2023/01/03 17:26:18;;;;;;;20.13;12.43;;;8.60;99.90;;;;;;5075190;28;20500;-77
2023/01/03 17:28:45;;;;;;;17.25;10.50;;;8.50;99.90;;;;;;5074552;28;20062;-78
2023/01/03 17:31:29;;;;;;;15.25;9.13;;;8.50;99.90;;;;;;5060715;28;20045;-77
2023/01/03 17:33:54;;;;;;;15.18;10.15;;;8.40;99.90;;;;;;5048278;28;20029;-77
2023/01/03 17:36:27;;;;;;;14.68;8.43;;;8.40;99.90;;;;;;5054884;28;20098;-77
2023/01/03 17:38:53;;;;;;;16.15;9.43;;;8.40;99.90;;;;;;5050945;28;20371;-77
2023/01/03 17:41:25;;;;;;;17.60;10.27;;;8.40;99.90;;;;;;5049762;28;20057;-78
2023/01/03 17:43:51;;;;;;;17.98;9.50;;;8.40;99.90;;;;;;5055458;28;20483;-76
2023/01/03 17:49:23;;;;;;;17.80;10.63;;;8.50;99.90;;;;;;5061133;28;20055;-78
2023/01/03 17:52:12;;;;;;;16.85;11.38;;;8.50;99.90;;;;;;5058668;28;20029;-77
2023/01/03 17:54:39;;;;;;;18.25;9.25;;;8.60;99.90;;;;;;5054036;28;20468;-77
2023/01/03 17:57:09;;;;;;;18.98;9.75;;;8.50;99.90;;;;;;5063951;28;20050;-78
2023/01/03 17:59:34;;;;;;;15.23;8.30;;;8.60;99.90;;;;;;5050677;28;20033;-77
2023/01/03 18:02:00;;;;;;;13.63;7.88;;;8.40;99.90;;;;;;5057700;28;20033;-77
2023/01/03 18:04:26;;;;;;;17.77;9.50;;;8.40;99.90;;;;;;5052199;28;20029;-77
2023/01/03 18:06:58;;;;;;;15.60;9.48;;;8.30;99.90;;;;;;5049775;28;20029;-77
2023/01/03 18:09:29;;;;;;;17.42;10.50;;;8.40;99.90;;;;;;5061545;28;20143;-76
2023/01/03 18:11:55;;;;;;;20.52;11.63;;;8.40;99.90;;;;;;5045633;28;20029;-78
2023/01/03 18:14:21;;;;;;;20.63;13.45;;;8.40;99.90;;;;;;5050569;28;20882;-77
2023/01/03 18:16:47;;;;;;;19.73;12.80;;;8.50;99.90;;;;;;5052280;28;20033;-78
2023/01/03 18:19:12;;;;;;;23.92;13.18;;;8.40;99.90;;;;;;5049968;28;20044;-78
2023/01/03 18:21:39;;;;;;;20.25;12.50;;;8.40;99.90;;;;;;5054874;28;20032;-76
2023/01/03 18:24:16;;;;;;;20.33;11.90;;;8.30;99.90;;;;;;5060551;28;20029;-77
2023/01/03 18:26:44;;;;;;;20.98;10.35;;;8.30;99.90;;;;;;5054843;28;20040;-78
2023/01/03 18:29:14;;;;;;;20.63;11.65;;;8.30;99.90;;;;;;5059691;28;20033;-77
2023/01/03 18:31:40;;;;;;;20.52;12.02;;;8.20;99.90;;;;;;5048216;28;20033;-76